createdAt,value
2022-12-25T00:01:16.117Z,45.77
2022-12-25T00:03:42.769Z,42.37
2022-12-25T00:06:09.539Z,41.03
2022-12-25T00:08:36.117Z,38.10
2022-12-25T00:11:04.065Z,39.47
2022-12-25T00:13:30.536Z,38.57
2022-12-25T00:15:57.172Z,39.40
2022-12-25T00:18:23.784Z,40.60
2022-12-25T00:20:57.315Z,35.23
2022-12-25T00:23:23.826Z,38.93
2022-12-25T00:25:50.294Z,34.03
2022-12-25T00:28:16.846Z,37.30
2022-12-25T00:30:43.356Z,39.03
2022-12-25T00:33:10.172Z,35.73
2022-12-25T00:35:36.768Z,40.03
2022-12-25T00:38:03.385Z,37.73
2022-12-25T00:40:29.893Z,37.67
2022-12-25T00:42:56.450Z,35.17
2022-12-25T00:45:22.974Z,34.50
2022-12-25T00:47:49.487Z,32.23
2022-12-25T00:50:15.997Z,42.13
2022-12-25T00:52:42.506Z,35.67
2022-12-25T00:55:09.164Z,38.07
2022-12-25T00:57:35.664Z,41.77
2022-12-25T01:00:02.160Z,43.30
2022-12-25T01:02:28.727Z,40.80
2022-12-25T01:04:55.807Z,49.40
2022-12-25T01:07:22.964Z,55.20
2022-12-25T01:10:07.980Z,60.03
2022-12-25T01:12:35.300Z,81.97
2022-12-25T01:15:01.865Z,83.97
2022-12-25T01:17:28.438Z,77.60
2022-12-25T01:19:55.020Z,73.37
2022-12-25T01:22:21.544Z,75.23
2022-12-25T01:24:48.073Z,70.60
2022-12-25T01:27:14.683Z,64.43
2022-12-25T01:29:41.188Z,67.73
2022-12-25T01:32:07.808Z,69.20
2022-12-25T01:34:34.421Z,65.93
2022-12-25T01:37:01.051Z,78.40
2022-12-25T01:39:27.604Z,85.37
2022-12-25T01:41:54.178Z,98.47
2022-12-25T01:44:35.908Z,84.47
2022-12-25T01:47:02.992Z,91.57
2022-12-25T01:49:29.528Z,95.90
2022-12-25T01:51:56.064Z,101.10
2022-12-25T01:54:23.943Z,74.87
2022-12-25T01:56:50.416Z,71.67
2022-12-25T01:59:17.706Z,57.23
2022-12-25T02:01:44.363Z,57.17
2022-12-25T02:04:22.294Z,59.57
2022-12-25T02:06:48.962Z,56.87
2022-12-25T02:09:15.454Z,48.27
2022-12-25T02:11:57.050Z,49.60
2022-12-25T02:14:24.078Z,55.70
2022-12-25T02:16:57.670Z,54.07
2022-12-25T02:19:36.926Z,53.67
2022-12-25T02:22:06.422Z,57.33
2022-12-25T02:24:32.916Z,56.43
2022-12-25T02:27:02.503Z,49.50
2022-12-25T02:29:34.987Z,48.40
2022-12-25T02:32:04.664Z,47.70
2022-12-25T02:34:35.973Z,50.83
2022-12-25T02:37:02.420Z,50.70
2022-12-25T02:39:53.251Z,54.87
2022-12-25T02:42:47.904Z,49.93
2022-12-25T02:45:33.295Z,51.17
2022-12-25T02:48:18.435Z,48.70
2022-12-25T02:51:03.715Z,48.40
2022-12-25T02:53:48.970Z,51.50
2022-12-25T02:56:34.087Z,50.63
2022-12-25T02:59:19.236Z,50.50
2022-12-25T03:02:04.453Z,46.63
2022-12-25T03:04:49.821Z,46.67
2022-12-25T03:07:17.632Z,46.10
2022-12-25T03:10:04.737Z,52.87
2022-12-25T03:12:40.491Z,44.10
2022-12-25T03:15:25.725Z,44.70
2022-12-25T03:17:52.282Z,50.83
2022-12-25T03:20:37.387Z,48.47
2022-12-25T03:23:22.499Z,55.03
2022-12-25T03:26:07.596Z,57.43
2022-12-25T03:28:34.107Z,45.50
2022-12-25T03:31:12.912Z,46.67
2022-12-25T03:34:16.903Z,49.23
2022-12-25T03:36:54.838Z,48.70
2022-12-25T03:39:43.108Z,50.67
2022-12-25T03:42:28.408Z,42.77
2022-12-25T03:45:22.760Z,44.37
2022-12-25T03:48:07.955Z,52.83
2022-12-25T03:50:53.127Z,50.00
2022-12-25T03:53:42.993Z,45.53
2022-12-25T03:56:28.164Z,45.80
2022-12-25T03:59:19.367Z,49.03
2022-12-25T04:02:08.692Z,50.47
2022-12-25T04:04:53.939Z,46.07
2022-12-25T04:07:39.068Z,50.60
2022-12-25T04:10:24.313Z,43.73
2022-12-25T04:13:09.451Z,48.43
2022-12-25T04:15:54.694Z,45.53
2022-12-25T04:18:39.997Z,46.27
2022-12-25T04:21:25.178Z,48.10
2022-12-25T04:24:10.100Z,43.77
2022-12-25T04:26:55.192Z,45.70
2022-12-25T04:29:51.042Z,46.60
2022-12-25T04:32:35.786Z,42.67
2022-12-25T04:35:20.902Z,42.33
2022-12-25T04:37:47.355Z,36.37
2022-12-25T04:40:13.884Z,39.20
2022-12-25T04:42:40.368Z,38.20
2022-12-25T04:45:07.136Z,34.77
2022-12-25T04:47:33.670Z,34.67
2022-12-25T04:50:00.198Z,33.17
2022-12-25T04:52:26.716Z,31.80
2022-12-25T04:54:53.200Z,32.43
2022-12-25T04:57:19.783Z,37.30
2022-12-25T04:59:46.251Z,40.30
2022-12-25T05:02:12.900Z,35.23
2022-12-25T05:04:39.636Z,41.27
2022-12-25T05:07:06.127Z,32.83
2022-12-25T05:09:32.594Z,32.67
2022-12-25T05:11:59.084Z,37.00
2022-12-25T05:14:25.577Z,36.73
2022-12-25T05:16:52.192Z,40.00
2022-12-25T05:19:18.702Z,41.83
2022-12-25T05:21:45.210Z,43.83
2022-12-25T05:24:11.734Z,42.63
2022-12-25T05:26:38.214Z,43.33
2022-12-25T05:29:04.698Z,48.77
2022-12-25T05:31:31.219Z,45.30
2022-12-25T05:33:57.801Z,48.23
2022-12-25T05:36:24.324Z,51.07
2022-12-25T05:38:50.844Z,54.00
2022-12-25T05:41:17.321Z,46.60
2022-12-25T05:43:43.832Z,50.20
2022-12-25T05:46:10.422Z,51.83
2022-12-25T05:48:37.227Z,45.00
2022-12-25T05:51:04.482Z,50.80
2022-12-25T05:53:30.988Z,48.27
2022-12-25T05:55:59.945Z,45.93
2022-12-25T05:58:26.416Z,41.17
2022-12-25T06:00:52.914Z,42.93
2022-12-25T06:03:19.517Z,49.97
2022-12-25T06:05:46.035Z,44.63
2022-12-25T06:08:12.569Z,48.63
2022-12-25T06:10:39.077Z,47.57
2022-12-25T06:13:05.611Z,47.57
2022-12-25T06:15:32.258Z,49.07
2022-12-25T06:18:01.851Z,48.93
2022-12-25T06:20:28.404Z,46.13
2022-12-25T06:22:54.921Z,53.13
2022-12-25T06:25:21.389Z,57.27
2022-12-25T06:27:47.908Z,53.87
2022-12-25T06:30:14.546Z,46.53
2022-12-25T06:32:41.073Z,52.47
2022-12-25T06:35:07.727Z,45.73
2022-12-25T06:37:34.414Z,51.27
2022-12-25T06:40:00.921Z,50.73
2022-12-25T06:42:27.523Z,53.07
2022-12-25T06:44:54.034Z,46.13
2022-12-25T06:47:20.584Z,51.77
2022-12-25T06:49:47.080Z,53.70
2022-12-25T06:52:13.584Z,52.10
2022-12-25T06:54:40.132Z,58.10
2022-12-25T06:57:06.591Z,57.83
2022-12-25T06:59:33.060Z,59.53
2022-12-25T07:01:59.788Z,62.63
2022-12-25T07:04:32.870Z,62.10
2022-12-25T07:07:04.403Z,60.23
2022-12-25T07:09:34.779Z,55.73
2022-12-25T07:12:08.327Z,61.80
2022-12-25T07:14:34.815Z,61.07
2022-12-25T07:17:01.370Z,58.83
2022-12-25T07:19:27.981Z,71.90
2022-12-25T07:21:54.476Z,67.67
2022-12-25T07:24:21.624Z,70.73
2022-12-25T07:26:48.280Z,70.20
2022-12-25T07:29:14.847Z,73.70
2022-12-25T07:31:41.470Z,71.87
2022-12-25T07:34:07.997Z,74.07
2022-12-25T07:36:34.484Z,71.77
2022-12-25T07:39:00.967Z,67.93
2022-12-25T07:41:27.519Z,75.80
2022-12-25T07:43:54.144Z,88.77
2022-12-25T07:46:21.182Z,92.47
2022-12-25T07:49:06.452Z,98.50
2022-12-25T07:51:33.061Z,107.37
2022-12-25T07:53:59.530Z,124.87
2022-12-25T07:56:26.094Z,153.20
2022-12-25T07:58:52.601Z,121.87
2022-12-25T08:01:21.202Z,121.43
2022-12-25T08:03:51.533Z,127.43
2022-12-25T08:06:18.202Z,89.77
2022-12-25T08:08:44.965Z,82.73
2022-12-25T08:11:11.490Z,84.93
2022-12-25T08:13:37.972Z,86.47
2022-12-25T08:16:05.394Z,75.57
2022-12-25T08:18:32.132Z,84.03
2022-12-25T08:21:02.174Z,78.87
2022-12-25T08:23:28.674Z,86.27
2022-12-25T08:26:04.189Z,82.30
2022-12-25T08:28:31.761Z,84.03
2022-12-25T08:30:58.220Z,78.03
2022-12-25T08:33:24.946Z,87.27
2022-12-25T08:35:51.429Z,74.60
2022-12-25T08:38:17.920Z,78.20
2022-12-25T08:40:44.471Z,79.33
2022-12-25T08:43:10.979Z,82.00
2022-12-25T08:45:37.453Z,78.93
2022-12-25T08:48:03.982Z,81.50
2022-12-25T08:50:30.473Z,72.23
2022-12-25T08:52:56.951Z,68.07
2022-12-25T08:55:23.541Z,63.87
2022-12-25T08:57:52.117Z,60.60
2022-12-25T09:00:18.812Z,59.17
2022-12-25T09:02:45.441Z,58.63
2022-12-25T09:05:12.272Z,59.43
2022-12-25T09:07:38.756Z,62.33
2022-12-25T09:10:05.537Z,61.87
2022-12-25T09:12:32.019Z,56.10
2022-12-25T09:14:58.496Z,57.93
2022-12-25T09:17:25.344Z,53.30
2022-12-25T09:19:51.886Z,60.43
2022-12-25T09:22:19.422Z,66.30
2022-12-25T09:24:45.922Z,60.27
2022-12-25T09:27:12.469Z,60.57
2022-12-25T09:29:39.250Z,54.87
2022-12-25T09:32:05.841Z,54.80
2022-12-25T09:34:32.332Z,62.90
2022-12-25T09:36:58.839Z,55.30
2022-12-25T09:39:25.324Z,60.03
2022-12-25T09:41:58.122Z,51.40
2022-12-25T09:44:25.975Z,58.27
2022-12-25T09:46:59.834Z,52.47
2022-12-25T09:49:32.454Z,51.63
2022-12-25T09:51:59.944Z,44.73
2022-12-25T09:54:47.087Z,43.87
2022-12-25T09:57:13.844Z,37.03
2022-12-25T09:59:41.776Z,38.37
2022-12-25T10:02:27.152Z,36.50
2022-12-25T10:04:57.327Z,34.47
2022-12-25T10:07:23.798Z,32.63
2022-12-25T10:10:09.004Z,33.27
2022-12-25T10:12:42.432Z,31.60
2022-12-25T10:15:22.194Z,30.63
2022-12-25T10:17:48.752Z,29.40
2022-12-25T10:20:15.342Z,28.13
2022-12-25T10:22:42.775Z,27.40
2022-12-25T10:25:16.618Z,27.70
2022-12-25T10:27:43.162Z,23.97
2022-12-25T10:30:19.728Z,23.20
2022-12-25T10:32:46.227Z,26.43
2022-12-25T10:35:13.565Z,25.63
2022-12-25T10:37:40.773Z,29.10
2022-12-25T10:40:21.349Z,31.93
2022-12-25T10:42:47.802Z,27.47
2022-12-25T10:45:14.322Z,28.57
2022-12-25T10:47:42.715Z,25.20
2022-12-25T10:50:18.177Z,24.47
2022-12-25T10:53:09.521Z,22.47
2022-12-25T10:55:36.020Z,24.33
2022-12-25T10:58:02.529Z,21.67
2022-12-25T11:00:30.389Z,19.87
2022-12-25T11:02:57.241Z,20.07
2022-12-25T11:05:26.131Z,21.53
2022-12-25T11:07:55.159Z,20.93
2022-12-25T11:10:24.493Z,18.37
2022-12-25T11:12:51.080Z,24.57
2022-12-25T11:15:43.910Z,19.10
2022-12-25T11:18:29.303Z,26.37
2022-12-25T11:20:56.477Z,20.20
2022-12-25T11:23:23.555Z,25.97
2022-12-25T11:26:06.192Z,27.33
2022-12-25T11:28:33.624Z,27.37
2022-12-25T11:31:05.942Z,22.37
2022-12-25T11:33:36.988Z,20.80
2022-12-25T11:36:04.474Z,25.03
2022-12-25T11:38:31.066Z,21.57
2022-12-25T11:40:58.847Z,26.67
2022-12-25T11:43:25.471Z,16.27
2022-12-25T11:45:53.056Z,19.97
2022-12-25T11:48:21.161Z,19.30
2022-12-25T11:50:52.127Z,14.70
2022-12-25T11:53:29.943Z,15.20
2022-12-25T11:55:58.069Z,18.10
2022-12-25T11:58:29.517Z,17.03
2022-12-25T12:00:57.404Z,18.77
2022-12-25T12:03:24.376Z,12.97
2022-12-25T12:05:52.465Z,17.43
2022-12-25T12:08:19.115Z,17.70
2022-12-25T12:11:01.683Z,17.90
2022-12-25T12:13:37.929Z,21.07
2022-12-25T12:16:06.084Z,27.33
2022-12-25T12:18:33.084Z,21.03
2022-12-25T12:21:04.388Z,15.23
2022-12-25T12:23:31.436Z,18.53
2022-12-25T12:25:58.658Z,22.27
2022-12-25T12:28:28.836Z,16.70
2022-12-25T12:30:59.669Z,14.40
2022-12-25T12:33:27.892Z,14.30
2022-12-25T12:35:54.646Z,13.33
2022-12-25T12:38:21.234Z,14.50
2022-12-25T12:40:58.385Z,16.30
2022-12-25T12:43:29.390Z,16.07
2022-12-25T12:45:56.821Z,19.97
2022-12-25T12:48:26.868Z,13.70
2022-12-25T12:51:12.618Z,15.70
2022-12-25T12:53:40.126Z,17.87
2022-12-25T12:56:13.966Z,14.53
2022-12-25T12:58:45.412Z,18.67
2022-12-25T13:01:13.970Z,14.13
2022-12-25T13:03:43.728Z,17.93
2022-12-25T13:06:12.275Z,15.93
2022-12-25T13:09:02.229Z,15.13
2022-12-25T13:11:29.680Z,19.20
2022-12-25T13:13:57.319Z,12.00
2022-12-25T13:16:39.838Z,13.00
2022-12-25T13:19:16.601Z,12.90
2022-12-25T13:21:51.377Z,19.30
2022-12-25T13:24:19.748Z,17.80
2022-12-25T13:26:46.823Z,20.53
2022-12-25T13:29:24.075Z,22.00
2022-12-25T13:31:50.679Z,13.70
2022-12-25T13:34:37.775Z,16.40
2022-12-25T13:37:16.741Z,18.53
2022-12-25T13:39:50.362Z,16.90
2022-12-25T13:42:17.416Z,16.37
2022-12-25T13:45:10.162Z,17.27
2022-12-25T13:47:40.073Z,15.37
2022-12-25T13:50:16.669Z,21.60
2022-12-25T13:52:43.194Z,18.27
2022-12-25T13:55:13.380Z,17.87
2022-12-25T13:57:40.938Z,17.20
2022-12-25T14:00:08.446Z,16.50
2022-12-25T14:02:36.234Z,21.37
2022-12-25T14:05:05.171Z,19.33
2022-12-25T14:07:31.725Z,17.07
2022-12-25T14:10:00.826Z,15.13
2022-12-25T14:12:28.616Z,17.07
2022-12-25T14:14:55.220Z,18.07
2022-12-25T14:17:21.822Z,17.50
2022-12-25T14:19:55.699Z,17.37
2022-12-25T14:22:22.316Z,20.10
2022-12-25T14:24:48.849Z,18.93
2022-12-25T14:27:17.811Z,16.87
2022-12-25T14:29:44.515Z,24.57
2022-12-25T14:32:18.170Z,21.57
2022-12-25T14:34:46.349Z,21.80
2022-12-25T14:37:15.660Z,24.93
2022-12-25T14:39:42.262Z,20.93
2022-12-25T14:42:22.117Z,27.47
2022-12-25T14:45:00.805Z,27.03
2022-12-25T14:47:27.506Z,29.43
2022-12-25T14:49:54.753Z,26.27
2022-12-25T14:52:31.889Z,28.67
2022-12-25T14:55:02.240Z,37.13
2022-12-25T14:57:30.261Z,33.30
2022-12-25T15:00:00.983Z,39.57
2022-12-25T15:02:27.738Z,47.60
2022-12-25T15:04:54.347Z,52.40
2022-12-25T15:07:28.261Z,48.77
2022-12-25T15:10:17.167Z,54.00
2022-12-25T15:12:41.548Z,48.30
2022-12-25T15:15:08.468Z,52.13
2022-12-25T15:17:34.968Z,48.97
2022-12-25T15:20:01.786Z,47.07
2022-12-25T15:22:42.255Z,43.73
2022-12-25T15:25:15.178Z,61.37
2022-12-25T15:27:42.661Z,85.97
2022-12-25T15:30:10.944Z,65.90
2022-12-25T15:32:37.955Z,73.27
2022-12-25T15:35:04.622Z,70.77
2022-12-25T15:37:31.100Z,72.27
2022-12-25T15:39:57.765Z,62.37
2022-12-25T15:42:25.270Z,61.30
2022-12-25T15:44:52.130Z,54.93
2022-12-25T15:47:20.310Z,46.13
2022-12-25T15:49:46.941Z,36.90
2022-12-25T15:52:14.704Z,34.47
2022-12-25T15:54:41.292Z,37.17
2022-12-25T15:57:11.111Z,31.60
2022-12-25T15:59:37.639Z,30.57
2022-12-25T16:02:06.300Z,29.50
2022-12-25T16:04:32.949Z,28.20
2022-12-25T16:06:59.517Z,32.93
2022-12-25T16:09:27.636Z,29.80
2022-12-25T16:11:54.147Z,26.87
2022-12-25T16:14:21.946Z,27.43
2022-12-25T16:16:48.483Z,26.00
2022-12-25T16:19:15.060Z,43.73
2022-12-25T16:21:42.540Z,72.70
2022-12-25T16:24:09.098Z,42.20
2022-12-25T16:26:35.694Z,33.03
2022-12-25T16:29:06.790Z,26.20
2022-12-25T16:31:34.275Z,25.73
2022-12-25T16:34:01.434Z,29.23
2022-12-25T16:36:27.953Z,29.47
2022-12-25T16:38:54.551Z,38.37
2022-12-25T16:41:21.919Z,46.87
2022-12-25T16:43:48.499Z,54.73
2022-12-25T16:46:20.209Z,56.03
2022-12-25T16:48:46.775Z,64.87
2022-12-25T16:51:20.037Z,68.77
2022-12-25T16:53:46.660Z,48.83
2022-12-25T16:56:14.910Z,47.87
2022-12-25T16:58:41.469Z,31.40
2022-12-25T17:01:08.604Z,42.53
2022-12-25T17:03:35.232Z,36.97
2022-12-25T17:06:02.018Z,42.07
2022-12-25T17:08:28.795Z,38.83
2022-12-25T17:10:55.357Z,44.80
2022-12-25T17:13:21.898Z,46.43
2022-12-25T17:15:50.540Z,49.53
2022-12-25T17:18:22.026Z,51.87
2022-12-25T17:20:52.151Z,52.87
2022-12-25T17:23:19.145Z,60.97
2022-12-25T17:25:45.844Z,60.40
2022-12-25T17:28:12.689Z,71.20
2022-12-25T17:30:39.461Z,62.20
2022-12-25T17:33:06.078Z,69.47
2022-12-25T17:35:34.585Z,74.93
2022-12-25T17:38:01.103Z,78.67
2022-12-25T17:40:27.660Z,81.80
2022-12-25T17:42:54.192Z,83.60
2022-12-25T17:45:21.009Z,78.53
2022-12-25T17:47:47.555Z,64.23
2022-12-25T17:50:14.203Z,55.57
2022-12-25T17:52:40.812Z,55.50
2022-12-25T17:55:07.576Z,49.90
2022-12-25T17:57:34.323Z,48.63
2022-12-25T18:00:01.049Z,51.50
2022-12-25T18:02:28.826Z,43.53
2022-12-25T18:04:55.637Z,51.17
2022-12-25T18:07:22.431Z,46.90
2022-12-25T18:09:49.650Z,47.27
2022-12-25T18:12:16.225Z,45.20
2022-12-25T18:14:43.134Z,45.20
2022-12-25T18:17:09.874Z,37.27
2022-12-25T18:19:36.726Z,36.60
2022-12-25T18:22:04.504Z,38.53
2022-12-25T18:24:31.128Z,34.60
2022-12-25T18:26:57.858Z,32.80
2022-12-25T18:29:24.678Z,30.50
2022-12-25T18:31:51.511Z,35.33
2022-12-25T18:34:18.201Z,35.33
2022-12-25T18:36:45.094Z,32.80
2022-12-25T18:39:11.719Z,32.77
2022-12-25T18:41:58.399Z,34.47
2022-12-25T18:44:24.985Z,29.33
2022-12-25T18:46:54.179Z,26.47
2022-12-25T18:49:20.871Z,24.93
2022-12-25T18:51:48.660Z,30.70
2022-12-25T18:54:15.438Z,29.43
2022-12-25T18:56:42.096Z,29.37
2022-12-25T18:59:08.749Z,35.73
2022-12-25T19:01:35.789Z,33.63
2022-12-25T19:04:05.495Z,42.80
2022-12-25T19:06:33.652Z,40.40
2022-12-25T19:09:00.389Z,36.40
2022-12-25T19:11:27.321Z,40.90
2022-12-25T19:13:53.967Z,42.73
2022-12-25T19:16:20.650Z,43.70
2022-12-25T19:18:47.399Z,37.30
2022-12-25T19:21:14.050Z,37.03
2022-12-25T19:23:40.695Z,35.67
2022-12-25T19:26:07.761Z,40.63
2022-12-25T19:28:34.655Z,39.40
2022-12-25T19:31:01.321Z,39.77
2022-12-25T19:33:27.922Z,39.67
2022-12-25T19:35:54.563Z,33.13
2022-12-25T19:38:21.307Z,38.20
2022-12-25T19:41:00.846Z,40.20
2022-12-25T19:43:28.688Z,37.70
2022-12-25T19:45:55.505Z,34.17
2022-12-25T19:48:22.310Z,37.23
2022-12-25T19:50:49.021Z,32.63
2022-12-25T19:53:17.363Z,35.73
2022-12-25T19:55:44.681Z,34.17
2022-12-25T19:58:11.660Z,35.03
2022-12-25T20:00:38.377Z,35.13
2022-12-25T20:03:05.366Z,32.43
2022-12-25T20:05:32.411Z,33.40
2022-12-25T20:07:59.347Z,35.33
2022-12-25T20:10:26.105Z,32.37
2022-12-25T20:12:53.415Z,38.40
2022-12-25T20:15:19.979Z,34.17
2022-12-25T20:17:47.140Z,33.43
2022-12-25T20:20:13.702Z,32.63
2022-12-25T20:22:40.370Z,30.93
2022-12-25T20:25:09.196Z,31.50
2022-12-25T20:27:35.738Z,30.90
2022-12-25T20:30:02.328Z,38.17
2022-12-25T20:32:29.374Z,33.80
2022-12-25T20:34:55.914Z,32.03
2022-12-25T20:37:22.506Z,27.67
2022-12-25T20:39:49.136Z,27.80
2022-12-25T20:42:15.745Z,24.73
2022-12-25T20:44:42.280Z,27.23
2022-12-25T20:47:09.086Z,27.03
2022-12-25T20:49:35.647Z,30.23
2022-12-25T20:52:05.491Z,25.87
2022-12-25T20:54:32.462Z,24.57
2022-12-25T20:56:59.125Z,29.33
2022-12-25T20:59:25.720Z,23.70
2022-12-25T21:01:54.446Z,23.23
2022-12-25T21:04:21.260Z,24.13
2022-12-25T21:06:47.886Z,21.40
2022-12-25T21:09:14.504Z,29.40
2022-12-25T21:11:41.049Z,23.07
2022-12-25T21:14:07.623Z,31.50
2022-12-25T21:16:34.257Z,29.27
2022-12-25T21:19:00.912Z,26.90
2022-12-25T21:21:27.553Z,28.77
2022-12-25T21:23:54.899Z,27.80
2022-12-25T21:26:22.279Z,26.43
2022-12-25T21:28:49.281Z,28.20
2022-12-25T21:31:15.943Z,32.43
2022-12-25T21:33:52.363Z,30.10
2022-12-25T21:36:19.113Z,31.53
2022-12-25T21:38:46.106Z,30.67
2022-12-25T21:41:13.059Z,28.53
2022-12-25T21:43:39.768Z,32.00
2022-12-25T21:46:08.210Z,36.47
2022-12-25T21:48:35.172Z,42.27
2022-12-25T21:51:24.050Z,37.53
2022-12-25T21:53:50.618Z,39.37
2022-12-25T21:56:17.220Z,40.20
2022-12-25T21:58:43.769Z,36.07
2022-12-25T22:01:11.260Z,36.97
2022-12-25T22:03:37.994Z,39.70
2022-12-25T22:06:23.421Z,41.30
2022-12-25T22:08:50.489Z,34.93
2022-12-25T22:11:35.743Z,38.73
2022-12-25T22:14:51.629Z,34.20
2022-12-25T22:17:26.279Z,35.00
2022-12-25T22:19:52.968Z,35.57
2022-12-25T22:22:22.936Z,38.73
2022-12-25T22:24:53.488Z,29.67
2022-12-25T22:27:20.238Z,37.23
2022-12-25T22:29:46.851Z,41.23
2022-12-25T22:32:14.920Z,39.90
2022-12-25T22:34:41.532Z,35.73
2022-12-25T22:37:08.322Z,31.80
2022-12-25T22:39:35.755Z,33.13
2022-12-25T22:42:02.540Z,36.23
2022-12-25T22:44:29.990Z,38.37
2022-12-25T22:46:57.493Z,29.70
2022-12-25T22:49:24.378Z,31.80
2022-12-25T22:51:51.000Z,38.57
2022-12-25T22:54:17.695Z,40.07
2022-12-25T22:56:44.977Z,41.80
2022-12-25T22:59:12.064Z,36.47
2022-12-25T23:01:38.746Z,38.33
2022-12-25T23:04:05.753Z,39.03
2022-12-25T23:06:32.409Z,40.83
2022-12-25T23:08:59.286Z,43.27
2022-12-25T23:11:25.908Z,40.23
2022-12-25T23:14:11.277Z,46.33
2022-12-25T23:16:37.794Z,48.23
2022-12-25T23:19:23.761Z,50.53
2022-12-25T23:22:28.684Z,49.27
2022-12-25T23:25:13.810Z,48.93
2022-12-25T23:27:40.456Z,49.33
2022-12-25T23:30:08.292Z,55.17
2022-12-25T23:32:34.887Z,53.97
2022-12-25T23:35:01.598Z,44.80
2022-12-25T23:37:28.170Z,43.67
2022-12-25T23:39:57.686Z,52.63
2022-12-25T23:42:24.270Z,49.90
2022-12-25T23:44:50.884Z,48.27
2022-12-25T23:47:17.491Z,46.57
2022-12-25T23:49:44.231Z,49.20
2022-12-25T23:52:11.528Z,46.60
2022-12-25T23:54:38.104Z,44.10
2022-12-25T23:57:05.789Z,43.53
2022-12-25T23:59:32.448Z,38.73
